METAR Data
IDs: Format: Raw Decoded Include TAF

Data at: 0919 UTC 10 Dec 2022

METAR for:VTUV (Roi Et Arpt, 45, TH)
Text:VTUV 100900Z 08005KT 030V120 9999 SCT030 31/18 Q1008 NOSIG
Temperature: 31.0°C ( 88°F)
Dewpoint: 18.0°C ( 64°F) [RH = 46%]
Pressure (altimeter):29.76 inches Hg (1008.0 mb)
Winds:from the E (80 degrees) at 6 MPH (5 knots; 2.6 m/s)
Visibility:6 or more sm (10+ km)
Ceiling:at least 12,000 feet AGL
Clouds: scattered clouds at 3000 feet AGL